sensor_id;sensor_type;location;lat;lon;timestamp;temperature;humidity
27306;DHT22;14792;50.886;6.468;2022-07-10T00:02:12;13.30;99.90
27306;DHT22;14792;50.886;6.468;2022-07-10T00:05:13;13.30;99.90
27306;DHT22;14792;50.886;6.468;2022-07-10T00:08:14;13.30;99.90
27306;DHT22;14792;50.886;6.468;2022-07-10T00:11:15;13.30;99.90
27306;DHT22;14792;50.886;6.468;2022-07-10T00:14:17;13.20;99.90
27306;DHT22;14792;50.886;6.468;2022-07-10T00:17:18;13.10;99.90
27306;DHT22;14792;50.886;6.468;2022-07-10T00:20:19;13.10;99.90
27306;DHT22;14792;50.886;6.468;2022-07-10T00:23:21;13.00;99.90
27306;DHT22;14792;50.886;6.468;2022-07-10T00:26:22;12.90;99.90
27306;DHT22;14792;50.886;6.468;2022-07-10T00:29:23;12.90;99.90
27306;DHT22;14792;50.886;6.468;2022-07-10T00:32:25;12.80;99.90
27306;DHT22;14792;50.886;6.468;2022-07-10T00:35:26;12.90;99.90
27306;DHT22;14792;50.886;6.468;2022-07-10T00:38:27;12.80;99.90
27306;DHT22;14792;50.886;6.468;2022-07-10T00:41:28;12.70;99.90
27306;DHT22;14792;50.886;6.468;2022-07-10T00:44:29;12.70;99.90
27306;DHT22;14792;50.886;6.468;2022-07-10T00:47:31;12.60;99.90
27306;DHT22;14792;50.886;6.468;2022-07-10T00:50:32;12.50;99.90
27306;DHT22;14792;50.886;6.468;2022-07-10T00:53:33;12.50;99.90
27306;DHT22;14792;50.886;6.468;2022-07-10T00:56:35;12.40;99.90
27306;DHT22;14792;50.886;6.468;2022-07-10T00:59:36;12.40;99.90
27306;DHT22;14792;50.886;6.468;2022-07-10T01:02:41;12.30;99.90
27306;DHT22;14792;50.886;6.468;2022-07-10T01:05:38;12.30;99.90
27306;DHT22;14792;50.886;6.468;2022-07-10T01:08:39;12.30;99.90
27306;DHT22;14792;50.886;6.468;2022-07-10T01:11:41;12.30;99.90
27306;DHT22;14792;50.886;6.468;2022-07-10T01:14:42;12.30;99.90
27306;DHT22;14792;50.886;6.468;2022-07-10T01:17:43;12.30;99.90
27306;DHT22;14792;50.886;6.468;2022-07-10T01:20:44;12.30;99.90
27306;DHT22;14792;50.886;6.468;2022-07-10T01:23:45;12.40;99.90
27306;DHT22;14792;50.886;6.468;2022-07-10T01:26:47;12.40;99.90
27306;DHT22;14792;50.886;6.468;2022-07-10T01:29:48;12.40;99.90
27306;DHT22;14792;50.886;6.468;2022-07-10T01:32:49;12.40;99.90
27306;DHT22;14792;50.886;6.468;2022-07-10T01:35:51;12.50;99.90
27306;DHT22;14792;50.886;6.468;2022-07-10T01:38:52;12.50;99.90
27306;DHT22;14792;50.886;6.468;2022-07-10T01:41:53;12.60;99.90
27306;DHT22;14792;50.886;6.468;2022-07-10T01:44:54;12.60;99.90
27306;DHT22;14792;50.886;6.468;2022-07-10T01:47:55;12.60;99.90
27306;DHT22;14792;50.886;6.468;2022-07-10T01:50:57;12.60;99.90
27306;DHT22;14792;50.886;6.468;2022-07-10T01:53:58;12.60;99.90
27306;DHT22;14792;50.886;6.468;2022-07-10T01:56:59;12.70;99.90
27306;DHT22;14792;50.886;6.468;2022-07-10T02:00:00;12.80;99.90
27306;DHT22;14792;50.886;6.468;2022-07-10T02:03:01;12.80;99.90
27306;DHT22;14792;50.886;6.468;2022-07-10T02:06:21;12.90;99.90
27306;DHT22;14792;50.886;6.468;2022-07-10T02:09:22;12.90;99.90
27306;DHT22;14792;50.886;6.468;2022-07-10T02:12:24;12.90;99.90
27306;DHT22;14792;50.886;6.468;2022-07-10T02:15:25;12.90;99.90
27306;DHT22;14792;50.886;6.468;2022-07-10T02:18:26;12.90;99.90
27306;DHT22;14792;50.886;6.468;2022-07-10T02:21:27;12.90;99.90
27306;DHT22;14792;50.886;6.468;2022-07-10T02:24:28;12.90;99.90
27306;DHT22;14792;50.886;6.468;2022-07-10T02:27:30;12.90;99.90
27306;DHT22;14792;50.886;6.468;2022-07-10T02:30:31;12.90;99.90
27306;DHT22;14792;50.886;6.468;2022-07-10T02:33:32;12.90;99.90
27306;DHT22;14792;50.886;6.468;2022-07-10T02:36:33;12.90;99.90
27306;DHT22;14792;50.886;6.468;2022-07-10T02:39:34;12.90;99.90
27306;DHT22;14792;50.886;6.468;2022-07-10T02:42:36;13.00;99.90
27306;DHT22;14792;50.886;6.468;2022-07-10T02:45:37;13.00;99.90
27306;DHT22;14792;50.886;6.468;2022-07-10T02:48:38;13.00;99.90
27306;DHT22;14792;50.886;6.468;2022-07-10T02:51:39;13.10;99.90
27306;DHT22;14792;50.886;6.468;2022-07-10T02:54:40;13.00;99.90
27306;DHT22;14792;50.886;6.468;2022-07-10T02:57:42;13.00;99.90
27306;DHT22;14792;50.886;6.468;2022-07-10T03:00:43;13.00;99.90
27306;DHT22;14792;50.886;6.468;2022-07-10T03:03:44;13.00;99.90
27306;DHT22;14792;50.886;6.468;2022-07-10T03:06:45;13.10;99.90
27306;DHT22;14792;50.886;6.468;2022-07-10T03:09:47;13.00;99.90
27306;DHT22;14792;50.886;6.468;2022-07-10T03:12:48;13.00;99.90
27306;DHT22;14792;50.886;6.468;2022-07-10T03:15:49;13.00;99.90
27306;DHT22;14792;50.886;6.468;2022-07-10T03:18:51;13.00;99.90
27306;DHT22;14792;50.886;6.468;2022-07-10T03:21:53;13.00;99.90
27306;DHT22;14792;50.886;6.468;2022-07-10T03:24:54;12.90;99.90
27306;DHT22;14792;50.886;6.468;2022-07-10T03:27:55;12.80;99.90
27306;DHT22;14792;50.886;6.468;2022-07-10T03:30:57;12.80;99.90
27306;DHT22;14792;50.886;6.468;2022-07-10T03:33:58;12.90;99.90
27306;DHT22;14792;50.886;6.468;2022-07-10T03:36:59;12.80;99.90
27306;DHT22;14792;50.886;6.468;2022-07-10T03:40:00;12.80;99.90
27306;DHT22;14792;50.886;6.468;2022-07-10T03:43:01;12.80;99.90
27306;DHT22;14792;50.886;6.468;2022-07-10T03:46:03;12.80;99.90
27306;DHT22;14792;50.886;6.468;2022-07-10T03:49:04;12.80;99.90
27306;DHT22;14792;50.886;6.468;2022-07-10T03:52:05;12.80;99.90
27306;DHT22;14792;50.886;6.468;2022-07-10T03:55:06;12.80;99.90
27306;DHT22;14792;50.886;6.468;2022-07-10T03:58:08;12.80;99.90
27306;DHT22;14792;50.886;6.468;2022-07-10T04:01:09;12.70;99.90
27306;DHT22;14792;50.886;6.468;2022-07-10T04:04:10;12.80;99.90
27306;DHT22;14792;50.886;6.468;2022-07-10T04:07:11;12.70;99.90
27306;DHT22;14792;50.886;6.468;2022-07-10T04:10:12;12.80;99.90
27306;DHT22;14792;50.886;6.468;2022-07-10T04:13:14;12.70;99.90
27306;DHT22;14792;50.886;6.468;2022-07-10T04:16:15;12.70;99.90
27306;DHT22;14792;50.886;6.468;2022-07-10T04:19:16;12.80;99.90
27306;DHT22;14792;50.886;6.468;2022-07-10T04:22:17;12.90;99.90
27306;DHT22;14792;50.886;6.468;2022-07-10T04:25:19;12.90;99.90
27306;DHT22;14792;50.886;6.468;2022-07-10T04:28:20;13.00;99.90
27306;DHT22;14792;50.886;6.468;2022-07-10T04:31:22;13.10;99.90
27306;DHT22;14792;50.886;6.468;2022-07-10T04:34:23;13.10;99.90
27306;DHT22;14792;50.886;6.468;2022-07-10T04:37:24;13.20;99.90
27306;DHT22;14792;50.886;6.468;2022-07-10T04:40:25;13.20;99.90
27306;DHT22;14792;50.886;6.468;2022-07-10T04:43:26;13.30;99.90
27306;DHT22;14792;50.886;6.468;2022-07-10T04:46:28;13.30;99.90
27306;DHT22;14792;50.886;6.468;2022-07-10T04:49:29;13.40;99.90
27306;DHT22;14792;50.886;6.468;2022-07-10T04:52:30;13.50;99.90
27306;DHT22;14792;50.886;6.468;2022-07-10T04:55:31;13.50;99.90
27306;DHT22;14792;50.886;6.468;2022-07-10T04:58:33;13.50;99.90
27306;DHT22;14792;50.886;6.468;2022-07-10T05:01:34;13.60;99.90
27306;DHT22;14792;50.886;6.468;2022-07-10T05:04:35;13.60;99.90
27306;DHT22;14792;50.886;6.468;2022-07-10T05:07:36;13.60;99.90
27306;DHT22;14792;50.886;6.468;2022-07-10T05:10:37;13.70;99.90
27306;DHT22;14792;50.886;6.468;2022-07-10T05:13:39;13.70;99.90
27306;DHT22;14792;50.886;6.468;2022-07-10T05:16:40;13.80;99.90
27306;DHT22;14792;50.886;6.468;2022-07-10T05:19:41;13.80;99.90
27306;DHT22;14792;50.886;6.468;2022-07-10T05:22:42;13.90;99.90
27306;DHT22;14792;50.886;6.468;2022-07-10T05:25:44;13.90;99.90
27306;DHT22;14792;50.886;6.468;2022-07-10T05:28:45;14.00;99.90
27306;DHT22;14792;50.886;6.468;2022-07-10T05:31:46;14.10;99.90
27306;DHT22;14792;50.886;6.468;2022-07-10T05:34:47;14.20;99.90
27306;DHT22;14792;50.886;6.468;2022-07-10T05:37:48;14.30;99.90
27306;DHT22;14792;50.886;6.468;2022-07-10T05:40:53;14.30;99.90
27306;DHT22;14792;50.886;6.468;2022-07-10T05:43:54;14.20;99.90
27306;DHT22;14792;50.886;6.468;2022-07-10T05:46:55;14.30;99.90
27306;DHT22;14792;50.886;6.468;2022-07-10T05:49:57;14.30;99.90
27306;DHT22;14792;50.886;6.468;2022-07-10T05:52:58;14.40;99.90
27306;DHT22;14792;50.886;6.468;2022-07-10T05:56:00;14.40;99.90
27306;DHT22;14792;50.886;6.468;2022-07-10T05:59:00;14.40;99.90
27306;DHT22;14792;50.886;6.468;2022-07-10T06:02:02;14.40;99.90
27306;DHT22;14792;50.886;6.468;2022-07-10T06:05:03;14.50;99.90
27306;DHT22;14792;50.886;6.468;2022-07-10T06:08:04;14.50;99.90
27306;DHT22;14792;50.886;6.468;2022-07-10T06:11:05;14.60;99.90
27306;DHT22;14792;50.886;6.468;2022-07-10T06:14:07;14.70;99.90
27306;DHT22;14792;50.886;6.468;2022-07-10T06:17:08;14.70;99.90
27306;DHT22;14792;50.886;6.468;2022-07-10T06:20:09;14.70;99.90
27306;DHT22;14792;50.886;6.468;2022-07-10T06:23:10;14.80;99.90
27306;DHT22;14792;50.886;6.468;2022-07-10T06:26:11;14.70;99.90
27306;DHT22;14792;50.886;6.468;2022-07-10T06:29:13;14.80;99.90
27306;DHT22;14792;50.886;6.468;2022-07-10T06:32:14;14.90;99.90
27306;DHT22;14792;50.886;6.468;2022-07-10T06:35:15;15.00;99.90
27306;DHT22;14792;50.886;6.468;2022-07-10T06:38:16;15.00;99.90
27306;DHT22;14792;50.886;6.468;2022-07-10T06:41:18;15.10;99.90
27306;DHT22;14792;50.886;6.468;2022-07-10T06:44:19;15.10;99.90
27306;DHT22;14792;50.886;6.468;2022-07-10T06:47:20;15.20;99.90
27306;DHT22;14792;50.886;6.468;2022-07-10T06:50:39;15.30;99.90
27306;DHT22;14792;50.886;6.468;2022-07-10T06:53:40;15.30;99.90
27306;DHT22;14792;50.886;6.468;2022-07-10T06:56:42;15.50;99.90
27306;DHT22;14792;50.886;6.468;2022-07-10T06:59:43;15.50;99.90
27306;DHT22;14792;50.886;6.468;2022-07-10T07:02:44;15.50;99.90
27306;DHT22;14792;50.886;6.468;2022-07-10T07:05:45;15.40;99.90
27306;DHT22;14792;50.886;6.468;2022-07-10T07:08:47;15.40;99.90
27306;DHT22;14792;50.886;6.468;2022-07-10T07:11:48;15.50;99.90
27306;DHT22;14792;50.886;6.468;2022-07-10T07:14:49;15.60;99.90
27306;DHT22;14792;50.886;6.468;2022-07-10T07:17:51;15.60;99.90
27306;DHT22;14792;50.886;6.468;2022-07-10T07:20:58;15.50;99.90
27306;DHT22;14792;50.886;6.468;2022-07-10T07:24:17;15.50;99.90
27306;DHT22;14792;50.886;6.468;2022-07-10T07:27:21;15.60;99.90
27306;DHT22;14792;50.886;6.468;2022-07-10T07:30:22;15.70;99.90
27306;DHT22;14792;50.886;6.468;2022-07-10T07:33:24;15.80;99.90
27306;DHT22;14792;50.886;6.468;2022-07-10T07:36:25;15.90;99.90
27306;DHT22;14792;50.886;6.468;2022-07-10T07:39:26;15.90;99.90
27306;DHT22;14792;50.886;6.468;2022-07-10T07:42:27;16.00;99.90
27306;DHT22;14792;50.886;6.468;2022-07-10T07:45:29;16.10;99.90
27306;DHT22;14792;50.886;6.468;2022-07-10T07:48:30;16.20;99.90
27306;DHT22;14792;50.886;6.468;2022-07-10T07:51:31;16.20;99.90
27306;DHT22;14792;50.886;6.468;2022-07-10T07:54:32;16.30;99.90
27306;DHT22;14792;50.886;6.468;2022-07-10T07:57:33;16.40;99.90
27306;DHT22;14792;50.886;6.468;2022-07-10T08:00:35;16.40;99.90
27306;DHT22;14792;50.886;6.468;2022-07-10T08:03:36;16.60;99.90
27306;DHT22;14792;50.886;6.468;2022-07-10T08:06:37;16.70;99.90
27306;DHT22;14792;50.886;6.468;2022-07-10T08:09:38;16.70;99.90
27306;DHT22;14792;50.886;6.468;2022-07-10T08:12:40;17.00;99.90
27306;DHT22;14792;50.886;6.468;2022-07-10T08:15:41;17.30;99.90
27306;DHT22;14792;50.886;6.468;2022-07-10T08:18:42;17.30;99.90
27306;DHT22;14792;50.886;6.468;2022-07-10T08:21:43;17.20;99.90
27306;DHT22;14792;50.886;6.468;2022-07-10T08:24:44;17.20;99.90
27306;DHT22;14792;50.886;6.468;2022-07-10T08:27:46;17.20;99.90
27306;DHT22;14792;50.886;6.468;2022-07-10T08:30:47;17.50;99.90
27306;DHT22;14792;50.886;6.468;2022-07-10T08:33:48;17.60;99.90
27306;DHT22;14792;50.886;6.468;2022-07-10T08:36:49;17.60;99.90
27306;DHT22;14792;50.886;6.468;2022-07-10T08:39:52;17.60;99.90
27306;DHT22;14792;50.886;6.468;2022-07-10T08:42:53;17.60;99.90
27306;DHT22;14792;50.886;6.468;2022-07-10T08:45:55;17.60;99.90
27306;DHT22;14792;50.886;6.468;2022-07-10T08:48:56;17.60;99.90
27306;DHT22;14792;50.886;6.468;2022-07-10T08:51:58;17.80;99.90
27306;DHT22;14792;50.886;6.468;2022-07-10T08:54:58;17.90;99.90
27306;DHT22;14792;50.886;6.468;2022-07-10T08:57:59;18.10;99.90
27306;DHT22;14792;50.886;6.468;2022-07-10T09:01:01;18.20;99.90
27306;DHT22;14792;50.886;6.468;2022-07-10T09:04:02;18.40;99.90
27306;DHT22;14792;50.886;6.468;2022-07-10T09:07:03;18.40;99.90
27306;DHT22;14792;50.886;6.468;2022-07-10T09:10:08;18.30;99.90
27306;DHT22;14792;50.886;6.468;2022-07-10T09:13:09;18.20;99.90
27306;DHT22;14792;50.886;6.468;2022-07-10T09:16:19;18.30;99.90
27306;DHT22;14792;50.886;6.468;2022-07-10T09:19:24;18.80;99.90
27306;DHT22;14792;50.886;6.468;2022-07-10T09:22:24;18.90;99.90
27306;DHT22;14792;50.886;6.468;2022-07-10T09:25:32;18.80;99.90
27306;DHT22;14792;50.886;6.468;2022-07-10T09:28:32;18.50;99.90
27306;DHT22;14792;50.886;6.468;2022-07-10T09:34:54;18.20;99.90
27306;DHT22;14792;50.886;6.468;2022-07-10T09:37:54;18.10;99.90
27306;DHT22;14792;50.886;6.468;2022-07-10T09:40:56;18.30;99.90
27306;DHT22;14792;50.886;6.468;2022-07-10T09:43:58;18.30;99.90
27306;DHT22;14792;50.886;6.468;2022-07-10T09:46:58;18.20;99.90
27306;DHT22;14792;50.886;6.468;2022-07-10T09:49:59;18.20;99.90
27306;DHT22;14792;50.886;6.468;2022-07-10T09:53:01;18.30;99.90
27306;DHT22;14792;50.886;6.468;2022-07-10T09:56:02;18.30;99.90
27306;DHT22;14792;50.886;6.468;2022-07-10T09:59:04;18.40;99.90
27306;DHT22;14792;50.886;6.468;2022-07-10T10:02:04;18.30;99.90
27306;DHT22;14792;50.886;6.468;2022-07-10T10:05:05;18.40;99.90
27306;DHT22;14792;50.886;6.468;2022-07-10T10:08:11;18.40;99.90
27306;DHT22;14792;50.886;6.468;2022-07-10T10:11:13;18.40;99.90
27306;DHT22;14792;50.886;6.468;2022-07-10T10:14:12;18.40;99.90
27306;DHT22;14792;50.886;6.468;2022-07-10T10:17:13;18.40;99.90
27306;DHT22;14792;50.886;6.468;2022-07-10T10:20:14;18.40;99.90
27306;DHT22;14792;50.886;6.468;2022-07-10T10:23:33;18.50;99.90
27306;DHT22;14792;50.886;6.468;2022-07-10T10:26:35;18.70;99.90
27306;DHT22;14792;50.886;6.468;2022-07-10T10:29:37;18.70;99.90
27306;DHT22;14792;50.886;6.468;2022-07-10T10:32:40;18.80;99.90
27306;DHT22;14792;50.886;6.468;2022-07-10T10:35:42;18.80;99.90
27306;DHT22;14792;50.886;6.468;2022-07-10T10:41:50;18.50;99.90
27306;DHT22;14792;50.886;6.468;2022-07-10T10:44:50;18.50;99.90
27306;DHT22;14792;50.886;6.468;2022-07-10T10:47:59;18.50;99.90
27306;DHT22;14792;50.886;6.468;2022-07-10T10:51:00;18.60;99.90
27306;DHT22;14792;50.886;6.468;2022-07-10T10:54:04;18.80;99.90
27306;DHT22;14792;50.886;6.468;2022-07-10T10:57:15;19.10;99.90
27306;DHT22;14792;50.886;6.468;2022-07-10T11:00:29;19.50;99.90
27306;DHT22;14792;50.886;6.468;2022-07-10T11:03:18;19.70;99.90
27306;DHT22;14792;50.886;6.468;2022-07-10T11:06:33;20.00;99.90
27306;DHT22;14792;50.886;6.468;2022-07-10T11:12:24;20.10;99.90
27306;DHT22;14792;50.886;6.468;2022-07-10T11:15:26;20.10;99.90
27306;DHT22;14792;50.886;6.468;2022-07-10T11:18:26;19.80;99.90
27306;DHT22;14792;50.886;6.468;2022-07-10T11:21:27;19.90;99.90
27306;DHT22;14792;50.886;6.468;2022-07-10T11:24:40;19.50;99.90
27306;DHT22;14792;50.886;6.468;2022-07-10T11:27:51;19.50;99.90
27306;DHT22;14792;50.886;6.468;2022-07-10T11:30:49;19.30;99.90
27306;DHT22;14792;50.886;6.468;2022-07-10T11:33:47;19.10;99.90
27306;DHT22;14792;50.886;6.468;2022-07-10T11:36:48;18.90;99.90
27306;DHT22;14792;50.886;6.468;2022-07-10T11:39:49;18.90;99.90
27306;DHT22;14792;50.886;6.468;2022-07-10T11:42:52;18.90;99.90
27306;DHT22;14792;50.886;6.468;2022-07-10T11:45:52;18.90;99.90
27306;DHT22;14792;50.886;6.468;2022-07-10T11:48:54;18.90;99.90
27306;DHT22;14792;50.886;6.468;2022-07-10T11:52:00;19.00;99.90
27306;DHT22;14792;50.886;6.468;2022-07-10T11:54:56;18.70;99.90
27306;DHT22;14792;50.886;6.468;2022-07-10T11:57:57;18.90;99.90
27306;DHT22;14792;50.886;6.468;2022-07-10T12:01:00;19.00;99.90
27306;DHT22;14792;50.886;6.468;2022-07-10T12:04:03;19.30;99.90
27306;DHT22;14792;50.886;6.468;2022-07-10T12:07:01;19.50;99.90
27306;DHT22;14792;50.886;6.468;2022-07-10T12:10:02;19.90;99.90
27306;DHT22;14792;50.886;6.468;2022-07-10T12:13:10;20.10;99.90
27306;DHT22;14792;50.886;6.468;2022-07-10T12:16:13;20.10;99.90
27306;DHT22;14792;50.886;6.468;2022-07-10T12:19:15;20.10;99.90
27306;DHT22;14792;50.886;6.468;2022-07-10T12:22:16;20.40;99.90
27306;DHT22;14792;50.886;6.468;2022-07-10T12:25:17;20.40;99.90
27306;DHT22;14792;50.886;6.468;2022-07-10T12:28:18;20.60;99.90
27306;DHT22;14792;50.886;6.468;2022-07-10T12:31:20;20.30;99.90
27306;DHT22;14792;50.886;6.468;2022-07-10T12:34:37;20.40;99.90
27306;DHT22;14792;50.886;6.468;2022-07-10T12:37:46;20.30;99.90
27306;DHT22;14792;50.886;6.468;2022-07-10T12:40:39;20.20;99.90
27306;DHT22;14792;50.886;6.468;2022-07-10T12:43:40;20.20;99.90
27306;DHT22;14792;50.886;6.468;2022-07-10T12:46:41;20.30;99.90
27306;DHT22;14792;50.886;6.468;2022-07-10T12:53:11;20.00;99.90
27306;DHT22;14792;50.886;6.468;2022-07-10T12:56:09;19.70;99.90
27306;DHT22;14792;50.886;6.468;2022-07-10T12:59:14;19.70;99.90
27306;DHT22;14792;50.886;6.468;2022-07-10T13:02:15;19.50;99.90
27306;DHT22;14792;50.886;6.468;2022-07-10T13:08:26;19.30;99.90
27306;DHT22;14792;50.886;6.468;2022-07-10T13:11:27;19.50;99.90
27306;DHT22;14792;50.886;6.468;2022-07-10T13:14:28;19.70;99.90
27306;DHT22;14792;50.886;6.468;2022-07-10T13:17:30;19.90;99.90
27306;DHT22;14792;50.886;6.468;2022-07-10T13:24:09;20.30;99.90
27306;DHT22;14792;50.886;6.468;2022-07-10T13:27:11;20.60;99.90
27306;DHT22;14792;50.886;6.468;2022-07-10T13:30:12;20.60;99.90
27306;DHT22;14792;50.886;6.468;2022-07-10T13:33:15;20.70;99.90
27306;DHT22;14792;50.886;6.468;2022-07-10T13:36:20;20.90;99.90
27306;DHT22;14792;50.886;6.468;2022-07-10T13:39:22;21.30;99.90
27306;DHT22;14792;50.886;6.468;2022-07-10T13:42:24;21.40;99.90
27306;DHT22;14792;50.886;6.468;2022-07-10T13:45:25;21.20;99.90
27306;DHT22;14792;50.886;6.468;2022-07-10T13:48:26;21.00;99.90
27306;DHT22;14792;50.886;6.468;2022-07-10T13:51:27;20.90;99.90
27306;DHT22;14792;50.886;6.468;2022-07-10T13:54:29;20.80;99.90
27306;DHT22;14792;50.886;6.468;2022-07-10T13:57:30;20.60;99.90
27306;DHT22;14792;50.886;6.468;2022-07-10T14:00:31;20.40;99.90
27306;DHT22;14792;50.886;6.468;2022-07-10T14:03:32;20.40;99.90
27306;DHT22;14792;50.886;6.468;2022-07-10T14:06:33;20.40;99.90
27306;DHT22;14792;50.886;6.468;2022-07-10T14:09:35;20.50;99.90
27306;DHT22;14792;50.886;6.468;2022-07-10T14:12:36;20.70;99.90
27306;DHT22;14792;50.886;6.468;2022-07-10T14:15:37;20.90;99.90
27306;DHT22;14792;50.886;6.468;2022-07-10T14:18:38;21.00;99.90
27306;DHT22;14792;50.886;6.468;2022-07-10T14:21:40;21.10;99.90
27306;DHT22;14792;50.886;6.468;2022-07-10T14:24:41;21.20;99.90
27306;DHT22;14792;50.886;6.468;2022-07-10T14:27:42;21.10;99.90
27306;DHT22;14792;50.886;6.468;2022-07-10T14:30:43;21.10;99.90
27306;DHT22;14792;50.886;6.468;2022-07-10T14:33:44;21.00;99.90
27306;DHT22;14792;50.886;6.468;2022-07-10T14:36:46;20.90;99.90
27306;DHT22;14792;50.886;6.468;2022-07-10T14:39:47;21.40;99.90
27306;DHT22;14792;50.886;6.468;2022-07-10T14:42:48;21.60;99.90
27306;DHT22;14792;50.886;6.468;2022-07-10T14:45:49;22.00;99.90
27306;DHT22;14792;50.886;6.468;2022-07-10T14:48:51;22.30;99.90
27306;DHT22;14792;50.886;6.468;2022-07-10T14:51:52;22.10;99.90
27306;DHT22;14792;50.886;6.468;2022-07-10T14:54:56;21.90;99.90
27306;DHT22;14792;50.886;6.468;2022-07-10T14:57:57;21.60;99.90
27306;DHT22;14792;50.886;6.468;2022-07-10T15:00:58;21.50;99.90
27306;DHT22;14792;50.886;6.468;2022-07-10T15:03:59;21.40;99.90
27306;DHT22;14792;50.886;6.468;2022-07-10T15:07:00;21.40;99.90
27306;DHT22;14792;50.886;6.468;2022-07-10T15:10:02;21.20;99.90
27306;DHT22;14792;50.886;6.468;2022-07-10T15:13:03;21.20;99.90
27306;DHT22;14792;50.886;6.468;2022-07-10T15:16:04;21.20;99.90
27306;DHT22;14792;50.886;6.468;2022-07-10T15:19:05;21.20;99.90
27306;DHT22;14792;50.886;6.468;2022-07-10T15:22:07;21.20;99.90
27306;DHT22;14792;50.886;6.468;2022-07-10T15:25:08;21.40;99.90
27306;DHT22;14792;50.886;6.468;2022-07-10T15:28:09;21.30;99.90
27306;DHT22;14792;50.886;6.468;2022-07-10T15:31:10;21.40;99.90
27306;DHT22;14792;50.886;6.468;2022-07-10T15:34:11;21.40;99.90
27306;DHT22;14792;50.886;6.468;2022-07-10T15:37:13;21.30;99.90
27306;DHT22;14792;50.886;6.468;2022-07-10T15:40:14;21.40;99.90
27306;DHT22;14792;50.886;6.468;2022-07-10T15:43:15;21.40;99.90
27306;DHT22;14792;50.886;6.468;2022-07-10T15:46:16;21.50;99.90
27306;DHT22;14792;50.886;6.468;2022-07-10T15:49:18;21.30;99.90
27306;DHT22;14792;50.886;6.468;2022-07-10T15:52:19;21.10;99.90
27306;DHT22;14792;50.886;6.468;2022-07-10T15:55:20;21.00;99.90
27306;DHT22;14792;50.886;6.468;2022-07-10T15:58:21;20.80;99.90
27306;DHT22;14792;50.886;6.468;2022-07-10T16:01:23;20.70;99.90
27306;DHT22;14792;50.886;6.468;2022-07-10T16:04:24;20.60;99.90
27306;DHT22;14792;50.886;6.468;2022-07-10T16:07:25;20.60;99.90
27306;DHT22;14792;50.886;6.468;2022-07-10T16:10:27;20.50;99.90
27306;DHT22;14792;50.886;6.468;2022-07-10T16:13:28;20.50;99.90
27306;DHT22;14792;50.886;6.468;2022-07-10T16:16:29;20.50;99.90
27306;DHT22;14792;50.886;6.468;2022-07-10T16:19:30;20.60;99.90
27306;DHT22;14792;50.886;6.468;2022-07-10T16:22:32;20.60;99.90
27306;DHT22;14792;50.886;6.468;2022-07-10T16:25:33;20.60;99.90
27306;DHT22;14792;50.886;6.468;2022-07-10T16:28:52;20.60;99.90
27306;DHT22;14792;50.886;6.468;2022-07-10T16:31:53;20.60;99.90
27306;DHT22;14792;50.886;6.468;2022-07-10T16:34:54;20.60;99.90
27306;DHT22;14792;50.886;6.468;2022-07-10T16:37:56;20.60;99.90
27306;DHT22;14792;50.886;6.468;2022-07-10T16:40:57;20.50;99.90
27306;DHT22;14792;50.886;6.468;2022-07-10T16:43:58;20.60;99.90
27306;DHT22;14792;50.886;6.468;2022-07-10T16:46:59;20.50;99.90
27306;DHT22;14792;50.886;6.468;2022-07-10T16:50:00;20.50;99.90
27306;DHT22;14792;50.886;6.468;2022-07-10T16:53:02;20.60;99.90
27306;DHT22;14792;50.886;6.468;2022-07-10T16:56:03;20.60;99.90
27306;DHT22;14792;50.886;6.468;2022-07-10T16:59:04;20.70;99.90
27306;DHT22;14792;50.886;6.468;2022-07-10T17:02:06;20.60;99.90
27306;DHT22;14792;50.886;6.468;2022-07-10T17:05:07;20.60;99.90
27306;DHT22;14792;50.886;6.468;2022-07-10T17:08:08;20.60;99.90
27306;DHT22;14792;50.886;6.468;2022-07-10T17:11:09;20.50;99.90
27306;DHT22;14792;50.886;6.468;2022-07-10T17:14:10;20.40;99.90
27306;DHT22;14792;50.886;6.468;2022-07-10T17:17:12;20.40;99.90
27306;DHT22;14792;50.886;6.468;2022-07-10T17:20:13;20.40;99.90
27306;DHT22;14792;50.886;6.468;2022-07-10T17:23:14;20.40;99.90
27306;DHT22;14792;50.886;6.468;2022-07-10T17:26:15;20.50;99.90
27306;DHT22;14792;50.886;6.468;2022-07-10T17:29:16;20.60;99.90
27306;DHT22;14792;50.886;6.468;2022-07-10T17:32:18;20.60;99.90
27306;DHT22;14792;50.886;6.468;2022-07-10T17:35:19;20.50;99.90
27306;DHT22;14792;50.886;6.468;2022-07-10T17:38:20;20.50;99.90
27306;DHT22;14792;50.886;6.468;2022-07-10T17:41:21;20.40;99.90
27306;DHT22;14792;50.886;6.468;2022-07-10T17:44:23;20.30;99.90
27306;DHT22;14792;50.886;6.468;2022-07-10T17:47:24;20.30;99.90
27306;DHT22;14792;50.886;6.468;2022-07-10T17:50:25;20.30;99.90
27306;DHT22;14792;50.886;6.468;2022-07-10T17:53:28;20.40;99.90
27306;DHT22;14792;50.886;6.468;2022-07-10T17:56:28;20.40;99.90
27306;DHT22;14792;50.886;6.468;2022-07-10T17:59:29;20.40;99.90
27306;DHT22;14792;50.886;6.468;2022-07-10T18:02:30;20.40;99.90
27306;DHT22;14792;50.886;6.468;2022-07-10T18:05:31;20.40;99.90
27306;DHT22;14792;50.886;6.468;2022-07-10T18:08:32;20.40;99.90
27306;DHT22;14792;50.886;6.468;2022-07-10T18:11:34;20.40;99.90
27306;DHT22;14792;50.886;6.468;2022-07-10T18:14:35;20.40;99.90
27306;DHT22;14792;50.886;6.468;2022-07-10T18:17:36;20.30;99.90
27306;DHT22;14792;50.886;6.468;2022-07-10T18:20:38;20.30;99.90
27306;DHT22;14792;50.886;6.468;2022-07-10T18:23:39;20.30;99.90
27306;DHT22;14792;50.886;6.468;2022-07-10T18:26:40;20.30;99.90
27306;DHT22;14792;50.886;6.468;2022-07-10T18:29:41;20.20;99.90
27306;DHT22;14792;50.886;6.468;2022-07-10T18:32:42;20.10;99.90
27306;DHT22;14792;50.886;6.468;2022-07-10T18:36:01;20.10;99.90
27306;DHT22;14792;50.886;6.468;2022-07-10T18:39:03;20.00;99.90
27306;DHT22;14792;50.886;6.468;2022-07-10T18:42:04;20.00;99.90
27306;DHT22;14792;50.886;6.468;2022-07-10T18:45:05;20.00;99.90
27306;DHT22;14792;50.886;6.468;2022-07-10T18:48:06;20.00;99.90
27306;DHT22;14792;50.886;6.468;2022-07-10T18:51:07;20.00;99.90
27306;DHT22;14792;50.886;6.468;2022-07-10T18:54:09;19.90;99.90
27306;DHT22;14792;50.886;6.468;2022-07-10T18:57:10;19.90;99.90
27306;DHT22;14792;50.886;6.468;2022-07-10T19:00:11;19.90;99.90
27306;DHT22;14792;50.886;6.468;2022-07-10T19:03:12;19.80;99.90
27306;DHT22;14792;50.886;6.468;2022-07-10T19:06:16;19.80;99.90
27306;DHT22;14792;50.886;6.468;2022-07-10T19:09:17;19.80;99.90
27306;DHT22;14792;50.886;6.468;2022-07-10T19:12:18;19.80;99.90
27306;DHT22;14792;50.886;6.468;2022-07-10T19:15:20;19.80;99.90
27306;DHT22;14792;50.886;6.468;2022-07-10T19:18:21;19.80;99.90
27306;DHT22;14792;50.886;6.468;2022-07-10T19:21:22;19.80;99.90
27306;DHT22;14792;50.886;6.468;2022-07-10T19:24:23;19.80;99.90
27306;DHT22;14792;50.886;6.468;2022-07-10T19:27:25;19.80;99.90